Terminal Aerodrome Forecast
Issued by NWS Twin Cities, MN

Home | Current Version | Previous Version | Text Only | Print | Product List | Glossary Off
Versions: 1 2 3 4 5 6 7 8 9 10 11 12 13 14 15 16 17

000
FTUS43 KMPX 181000 AAA
TAFEAU
TAF AMD
KEAU 181040Z 1811/1906 00000KT 6SM BR SCT200
     FM181400 07005KT P6SM BKN090
     FM181900 11009KT P6SM SCT100 SCT250=

USA.gov is the U.S. government's official web portal to all federal, state and local government web resources and services.